createdAt,value
2022-08-19T00:04:42.461Z,1.30
2022-08-19T00:09:42.374Z,2.03
2022-08-19T00:14:43.100Z,2.15
2022-08-19T00:17:13.951Z,2.55
2022-08-19T00:19:44.386Z,2.80
2022-08-19T00:22:15.204Z,1.80
2022-08-19T00:24:50.818Z,1.55
2022-08-19T00:27:26.061Z,1.95
2022-08-19T00:29:57.021Z,1.42
2022-08-19T00:32:28.174Z,1.90
2022-08-19T00:35:00.564Z,2.08
2022-08-19T00:37:31.295Z,1.52
2022-08-19T00:40:01.933Z,1.45
2022-08-19T00:45:02.249Z,0.80
2022-08-19T00:47:32.855Z,1.92
2022-08-19T00:50:03.034Z,0.95
2022-08-19T00:52:37.607Z,1.63
2022-08-19T00:55:14.144Z,1.42
2022-08-19T00:57:50.008Z,1.67
2022-08-19T01:00:22.291Z,3.70
2022-08-19T01:02:53.462Z,6.18
2022-08-19T01:05:29.864Z,7.10
2022-08-19T01:08:03.554Z,6.53
2022-08-19T01:10:38.799Z,8.00
2022-08-19T01:13:10.358Z,7.45
2022-08-19T01:15:51.991Z,5.60
2022-08-19T01:18:24.044Z,4.38
2022-08-19T01:20:56.915Z,3.63
2022-08-19T01:23:45.062Z,4.68
2022-08-19T01:26:19.230Z,4.32
2022-08-19T01:28:52.709Z,5.68
2022-08-19T01:31:27.867Z,6.68
2022-08-19T01:34:00.268Z,5.85
2022-08-19T01:36:41.443Z,4.53
2022-08-19T01:39:17.848Z,3.30
2022-08-19T01:41:48.935Z,1.35
2022-08-19T01:44:22.564Z,1.10
2022-08-19T01:46:53.951Z,0.95
2022-08-19T01:49:27.567Z,0.50
2022-08-19T01:51:59.636Z,0.82
2022-08-19T01:54:30.551Z,0.77
2022-08-19T01:57:09.689Z,0.82
2022-08-19T01:59:41.834Z,1.20
2022-08-19T02:02:12.790Z,0.50
2022-08-19T02:04:43.081Z,0.82
2022-08-19T02:07:13.429Z,0.95
2022-08-19T02:09:43.891Z,0.75
2022-08-19T02:12:14.302Z,0.55
2022-08-19T02:14:44.510Z,0.40
2022-08-19T02:17:15.061Z,0.47
2022-08-19T02:22:15.661Z,1.38
2022-08-19T02:24:46.731Z,5.00
2022-08-19T02:27:17.833Z,3.90
2022-08-19T02:29:51.403Z,2.97
2022-08-19T02:32:22.388Z,2.90
2022-08-19T02:34:52.829Z,1.92
2022-08-19T02:37:41.329Z,3.38
2022-08-19T02:40:12.861Z,13.80
2022-08-19T02:42:45.008Z,8.98
2022-08-19T02:45:16.758Z,8.38
2022-08-19T02:47:47.838Z,4.65
2022-08-19T02:50:18.301Z,2.60
2022-08-19T02:52:48.694Z,3.88
2022-08-19T02:55:19.206Z,5.43
2022-08-19T02:57:50.453Z,5.25
2022-08-19T03:00:21.048Z,4.93
2022-08-19T03:02:51.459Z,5.47
2022-08-19T03:05:25.227Z,5.55
2022-08-19T03:08:01.210Z,5.28
2022-08-19T03:13:01.501Z,3.22
2022-08-19T03:15:35.150Z,1.63
2022-08-19T03:18:05.564Z,1.90
2022-08-19T03:20:44.450Z,1.20
2022-08-19T03:23:16.204Z,1.38
2022-08-19T03:25:58.091Z,0.82
2022-08-19T03:28:40.060Z,0.98
2022-08-19T03:31:45.710Z,0.80
2022-08-19T03:34:06.077Z,0.43
2022-08-19T03:36:38.770Z,0.45
2022-08-19T03:39:10.815Z,0.70
2022-08-19T03:41:45.626Z,0.82
2022-08-19T03:44:18.781Z,0.47
2022-08-19T03:46:57.684Z,0.77
2022-08-19T03:49:31.984Z,0.93
2022-08-19T03:52:07.237Z,0.85
2022-08-19T03:54:38.147Z,0.95
2022-08-19T03:57:09.896Z,0.80
2022-08-19T03:59:41.237Z,0.52
2022-08-19T04:02:14.955Z,0.50
2022-08-19T04:04:46.857Z,0.45
2022-08-19T04:07:18.430Z,0.80
2022-08-19T04:09:48.714Z,0.30
2022-08-19T04:12:18.943Z,0.40
2022-08-19T04:14:49.706Z,0.20
2022-08-19T04:22:20.723Z,0.52
2022-08-19T04:24:51.127Z,0.70
2022-08-19T04:27:22.115Z,1.23
2022-08-19T04:29:53.049Z,0.45
2022-08-19T04:32:24.357Z,0.40
2022-08-19T04:35:02.446Z,0.40
2022-08-19T04:37:45.966Z,0.60
2022-08-19T04:40:34.552Z,0.35
2022-08-19T04:43:04.975Z,0.50
2022-08-19T04:45:39.460Z,0.82
2022-08-19T04:48:26.449Z,0.40
2022-08-19T04:51:02.061Z,0.22
2022-08-19T04:53:37.842Z,0.30
2022-08-19T04:56:14.549Z,0.65
2022-08-19T04:58:46.684Z,0.60
2022-08-19T05:01:20.811Z,1.23
2022-08-19T05:03:51.919Z,1.88
2022-08-19T05:06:24.624Z,1.92
2022-08-19T05:08:55.394Z,2.38
2022-08-19T05:11:31.220Z,2.17
2022-08-19T05:14:01.570Z,2.53
2022-08-19T05:16:32.147Z,1.70
2022-08-19T05:19:20.557Z,2.00
2022-08-19T05:22:08.845Z,2.80
2022-08-19T05:24:56.381Z,2.08
2022-08-19T05:27:30.213Z,2.42
2022-08-19T05:30:01.236Z,2.05
2022-08-19T05:32:31.691Z,1.70
2022-08-19T05:35:02.200Z,2.30
2022-08-19T05:37:32.613Z,1.98
2022-08-19T05:40:03.681Z,2.50
2022-08-19T05:42:34.239Z,2.47
2022-08-19T05:45:04.590Z,1.80
2022-08-19T05:47:35.020Z,1.10
2022-08-19T05:50:06.654Z,0.70
2022-08-19T05:52:43.695Z,0.30
2022-08-19T05:55:16.558Z,0.55
2022-08-19T05:57:47.010Z,0.63
2022-08-19T06:00:21.399Z,0.40
2022-08-19T06:02:54.659Z,0.25
2022-08-19T06:05:25.232Z,0.35
2022-08-19T06:07:56.439Z,0.40
2022-08-19T06:10:27.323Z,0.40
2022-08-19T06:12:58.325Z,0.45
2022-08-19T06:15:29.733Z,0.45
2022-08-19T06:18:00.145Z,0.38
2022-08-19T06:20:54.617Z,0.47
2022-08-19T06:23:24.358Z,0.47
2022-08-19T06:25:54.957Z,0.45
2022-08-19T06:28:25.990Z,0.22
2022-08-19T06:30:56.852Z,0.70
2022-08-19T06:33:27.158Z,0.47
2022-08-19T06:35:57.500Z,0.55
2022-08-19T06:38:27.942Z,0.45
2022-08-19T06:41:07.620Z,0.60
2022-08-19T06:43:42.220Z,0.55
2022-08-19T06:46:14.975Z,0.50
2022-08-19T06:48:45.746Z,0.50
2022-08-19T06:51:20.973Z,0.70
2022-08-19T06:53:53.220Z,0.52
2022-08-19T06:56:33.330Z,0.52
2022-08-19T06:59:13.284Z,0.50
2022-08-19T07:01:49.912Z,0.28
2022-08-19T07:04:23.433Z,0.50
2022-08-19T07:07:12.479Z,0.73
2022-08-19T07:09:59.103Z,0.47
2022-08-19T07:12:38.249Z,0.60
2022-08-19T07:15:12.070Z,0.40
2022-08-19T07:17:43.366Z,0.77
2022-08-19T07:20:15.292Z,0.43
2022-08-19T07:22:49.742Z,0.30
2022-08-19T07:25:21.506Z,0.30
2022-08-19T07:28:03.135Z,0.35
2022-08-19T07:30:34.132Z,0.85
2022-08-19T07:33:06.213Z,0.52
2022-08-19T07:35:36.636Z,0.57
2022-08-19T07:38:07.049Z,0.68
2022-08-19T07:40:37.369Z,0.30
2022-08-19T07:43:10.187Z,0.30
2022-08-19T07:45:44.772Z,0.22
2022-08-19T07:50:45.420Z,0.60
2022-08-19T07:53:15.784Z,0.30
2022-08-19T07:55:47.209Z,0.20
2022-08-19T07:58:20.519Z,0.30
2022-08-19T08:00:53.312Z,0.35
2022-08-19T08:03:47.158Z,0.22
2022-08-19T08:06:36.716Z,0.38
2022-08-19T08:12:32.928Z,0.20
2022-08-19T08:15:08.115Z,0.30
2022-08-19T08:17:48.607Z,0.40
2022-08-19T08:20:21.680Z,0.40
2022-08-19T08:23:10.363Z,0.35
2022-08-19T08:25:40.895Z,0.10
2022-08-19T08:28:17.715Z,0.13
2022-08-19T08:33:30.197Z,0.47
2022-08-19T08:36:08.671Z,0.00
2022-08-19T08:38:41.030Z,0.20
2022-08-19T08:41:39.971Z,0.55
2022-08-19T08:44:25.038Z,0.50
2022-08-19T08:47:04.068Z,0.38
2022-08-19T08:49:56.515Z,0.40
2022-08-19T08:52:39.687Z,0.55
2022-08-19T08:55:27.278Z,0.20
2022-08-19T08:58:44.117Z,0.55
2022-08-19T09:01:14.905Z,0.30
2022-08-19T09:03:47.679Z,0.60
2022-08-19T09:06:26.014Z,0.70
2022-08-19T09:09:20.952Z,0.13
2022-08-19T09:12:31.716Z,0.22
2022-08-19T09:15:07.036Z,0.20
2022-08-19T09:17:38.200Z,0.55
2022-08-19T09:20:26.745Z,0.35
2022-08-19T09:22:57.084Z,0.90
2022-08-19T09:25:29.694Z,0.55
2022-08-19T09:28:05.690Z,0.47
2022-08-19T09:30:44.271Z,0.30
2022-08-19T09:33:16.345Z,0.35
2022-08-19T09:35:53.087Z,0.32
2022-08-19T09:38:24.741Z,0.55
2022-08-19T09:40:55.807Z,0.57
2022-08-19T09:43:33.675Z,0.77
2022-08-19T09:46:07.617Z,0.52
2022-08-19T09:48:39.415Z,0.35
2022-08-19T09:51:18.601Z,0.20
2022-08-19T09:53:54.007Z,0.30
2022-08-19T09:56:25.361Z,0.45
2022-08-19T09:58:55.907Z,0.60
2022-08-19T10:01:29.011Z,0.52
2022-08-19T10:04:03.594Z,0.35
2022-08-19T10:06:46.834Z,0.52
2022-08-19T10:09:26.416Z,0.80
2022-08-19T10:12:06.532Z,1.35
2022-08-19T10:17:19.158Z,0.60
2022-08-19T10:19:53.434Z,1.02
2022-08-19T10:22:26.426Z,1.02
2022-08-19T10:24:56.835Z,0.50
2022-08-19T10:27:27.861Z,1.17
2022-08-19T10:30:03.523Z,0.80
2022-08-19T10:32:34.639Z,1.00
2022-08-19T10:35:13.941Z,0.85
2022-08-19T10:37:56.846Z,0.70
2022-08-19T10:40:29.325Z,1.08
2022-08-19T10:43:00.419Z,1.13
2022-08-19T10:45:31.135Z,0.50
2022-08-19T10:48:01.686Z,0.77
2022-08-19T10:50:51.066Z,1.23
2022-08-19T10:53:26.065Z,0.85
2022-08-19T10:56:14.709Z,0.65
2022-08-19T10:58:45.631Z,1.25
2022-08-19T11:06:15.758Z,1.30
2022-08-19T11:08:47.316Z,0.70
2022-08-19T11:11:17.791Z,1.13
2022-08-19T11:13:48.850Z,0.93
2022-08-19T11:16:25.899Z,1.38
2022-08-19T11:21:37.119Z,1.45
2022-08-19T11:24:10.789Z,1.08
2022-08-19T11:26:42.886Z,0.63
2022-08-19T11:29:15.683Z,0.57
2022-08-19T11:31:48.841Z,1.00
2022-08-19T11:34:22.742Z,1.08
2022-08-19T11:36:54.136Z,1.10
2022-08-19T11:39:25.209Z,0.90
2022-08-19T11:41:55.593Z,0.70
2022-08-19T11:44:26.631Z,1.00
2022-08-19T11:46:57.083Z,0.60
2022-08-19T11:49:27.540Z,0.63
2022-08-19T11:52:00.529Z,0.70
2022-08-19T11:54:30.925Z,0.93
2022-08-19T11:57:01.831Z,0.70
2022-08-19T11:59:32.636Z,0.95
2022-08-19T12:04:32.590Z,0.75
2022-08-19T12:07:04.109Z,0.50
2022-08-19T12:09:36.719Z,0.55
2022-08-19T12:12:12.861Z,0.93
2022-08-19T12:14:43.271Z,0.32
2022-08-19T12:17:15.561Z,0.50
2022-08-19T12:19:46.840Z,0.90
2022-08-19T12:22:17.321Z,0.47
2022-08-19T12:24:47.994Z,0.63
2022-08-19T12:27:32.041Z,0.38
2022-08-19T12:30:11.366Z,0.10
2022-08-19T12:32:41.871Z,0.65
2022-08-19T12:35:12.959Z,0.65
2022-08-19T12:37:56.696Z,0.70
2022-08-19T12:40:28.023Z,0.30
2022-08-19T12:42:58.390Z,0.40
2022-08-19T12:45:31.499Z,0.95
2022-08-19T12:48:01.922Z,0.60
2022-08-19T12:50:52.293Z,0.20
2022-08-19T12:53:22.930Z,0.30
2022-08-19T12:56:03.221Z,0.77
2022-08-19T12:58:37.942Z,0.55
2022-08-19T13:01:14.328Z,0.40
2022-08-19T13:03:45.353Z,0.82
2022-08-19T13:06:19.052Z,1.00
2022-08-19T13:08:50.952Z,0.15
2022-08-19T13:11:26.482Z,0.30
2022-08-19T13:13:57.421Z,0.70
2022-08-19T13:16:30.011Z,0.50
2022-08-19T13:19:01.075Z,0.65
2022-08-19T13:21:32.247Z,1.15
2022-08-19T13:24:02.608Z,0.30
2022-08-19T13:26:33.036Z,0.30
2022-08-19T13:29:21.416Z,0.38
2022-08-19T13:32:10.121Z,0.35
2022-08-19T13:34:43.507Z,0.50
2022-08-19T13:37:13.886Z,0.40
2022-08-19T13:39:44.266Z,1.00
2022-08-19T13:42:16.151Z,0.40
2022-08-19T13:44:46.951Z,0.65
2022-08-19T13:49:48.405Z,0.20
2022-08-19T13:52:18.969Z,0.85
2022-08-19T13:54:50.037Z,0.60
2022-08-19T13:57:20.445Z,0.47
2022-08-19T13:59:50.953Z,0.73
2022-08-19T14:02:21.478Z,0.22
2022-08-19T14:04:51.886Z,0.10
2022-08-19T14:07:22.601Z,0.20
2022-08-19T14:09:53.778Z,0.50
2022-08-19T14:14:59.428Z,0.32
2022-08-19T14:17:31.177Z,0.10
2022-08-19T14:20:11.856Z,0.22
2022-08-19T14:22:51.008Z,0.17
2022-08-19T14:25:25.088Z,0.52
2022-08-19T14:27:56.091Z,0.20
2022-08-19T14:30:32.527Z,0.30
2022-08-19T14:33:04.417Z,0.30
2022-08-19T14:35:37.092Z,0.32
2022-08-19T14:38:10.485Z,0.28
2022-08-19T14:40:42.793Z,0.30
2022-08-19T14:43:13.495Z,0.30
2022-08-19T14:45:49.934Z,0.43
2022-08-19T14:48:21.016Z,0.68
2022-08-19T14:50:51.636Z,0.30
2022-08-19T14:53:21.969Z,0.00
2022-08-19T14:55:52.415Z,0.25
2022-08-19T14:58:29.754Z,0.47
2022-08-19T15:01:02.007Z,0.10
2022-08-19T15:03:33.856Z,0.30
2022-08-19T15:06:06.775Z,0.73
2022-08-19T15:08:41.478Z,0.15
2022-08-19T15:11:14.677Z,0.40
2022-08-19T15:13:48.862Z,0.08
2022-08-19T15:16:20.448Z,0.28
2022-08-19T15:18:53.696Z,0.30
2022-08-19T15:21:27.744Z,0.40
2022-08-19T15:24:00.120Z,0.30
2022-08-19T15:26:34.293Z,0.80
2022-08-19T15:29:05.859Z,0.38
2022-08-19T15:31:38.832Z,0.82
2022-08-19T15:34:09.931Z,0.30
2022-08-19T15:36:40.451Z,0.35
2022-08-19T15:41:42.385Z,0.22
2022-08-19T15:44:16.101Z,0.30
2022-08-19T15:46:48.737Z,0.40
2022-08-19T15:49:22.097Z,0.20
2022-08-19T15:51:55.404Z,0.40
2022-08-19T15:54:26.337Z,0.40
2022-08-19T15:57:15.044Z,0.40
2022-08-19T16:00:03.988Z,0.63
2022-08-19T16:02:53.613Z,0.13
2022-08-19T16:05:44.867Z,0.50
2022-08-19T16:08:16.629Z,0.40
2022-08-19T16:10:47.047Z,0.40
2022-08-19T16:15:47.010Z,0.30
2022-08-19T16:20:47.993Z,0.38
2022-08-19T16:23:18.770Z,0.10
2022-08-19T16:25:49.367Z,0.28
2022-08-19T16:28:19.852Z,0.30
2022-08-19T16:33:23.169Z,0.30
2022-08-19T16:36:06.993Z,0.30
2022-08-19T16:38:38.951Z,0.50
2022-08-19T16:41:09.517Z,0.30
2022-08-19T16:43:40.238Z,0.40
2022-08-19T16:46:11.578Z,0.30
2022-08-19T16:48:46.747Z,0.25
2022-08-19T16:51:18.630Z,0.32
2022-08-19T16:53:49.122Z,0.30
2022-08-19T16:56:20.837Z,0.40
2022-08-19T16:58:51.825Z,0.10
2022-08-19T17:01:22.494Z,0.45
2022-08-19T17:03:54.251Z,0.38
2022-08-19T17:06:32.251Z,0.22
2022-08-19T17:09:03.644Z,0.30
2022-08-19T17:11:35.431Z,0.32
2022-08-19T17:14:07.201Z,0.50
2022-08-19T17:16:38.627Z,0.22
2022-08-19T17:19:10.093Z,0.30
2022-08-19T17:21:42.022Z,0.30
2022-08-19T17:24:12.562Z,0.40
2022-08-19T17:26:43.156Z,0.45
2022-08-19T17:29:13.731Z,0.25
2022-08-19T17:31:44.302Z,0.20
2022-08-19T17:34:14.647Z,0.17
2022-08-19T17:39:15.245Z,0.20
2022-08-19T17:41:45.982Z,0.20
2022-08-19T17:44:16.292Z,0.30
2022-08-19T17:46:47.980Z,0.55
2022-08-19T17:49:19.205Z,0.70
2022-08-19T17:51:51.320Z,0.28
2022-08-19T17:54:22.216Z,0.32
2022-08-19T17:56:52.961Z,0.20
2022-08-19T17:59:25.802Z,0.43
2022-08-19T18:02:00.567Z,0.20
2022-08-19T18:04:31.450Z,0.20
2022-08-19T18:07:05.449Z,0.25
2022-08-19T18:09:41.425Z,0.30
2022-08-19T18:12:15.181Z,0.30
2022-08-19T18:14:45.994Z,0.43
2022-08-19T18:17:20.529Z,0.10
2022-08-19T18:19:51.282Z,0.40
2022-08-19T18:22:30.424Z,0.40
2022-08-19T18:25:00.913Z,0.35
2022-08-19T18:27:31.546Z,0.35
2022-08-19T18:30:02.426Z,0.13
2022-08-19T18:32:39.553Z,0.55
2022-08-19T18:35:16.537Z,0.40
2022-08-19T18:37:48.092Z,0.35
2022-08-19T18:40:39.959Z,0.40
2022-08-19T18:43:13.898Z,0.28
2022-08-19T18:46:03.502Z,0.45
2022-08-19T18:48:56.959Z,0.20
2022-08-19T18:51:31.384Z,0.20
2022-08-19T18:54:03.194Z,0.30
2022-08-19T18:56:34.633Z,0.22
2022-08-19T18:59:05.325Z,0.30
2022-08-19T19:01:42.023Z,0.30
2022-08-19T19:04:12.435Z,0.20
2022-08-19T19:09:18.906Z,0.50
2022-08-19T19:11:59.389Z,0.20
2022-08-19T19:14:48.762Z,0.50
2022-08-19T19:17:19.919Z,0.30
2022-08-19T19:19:50.206Z,0.40
2022-08-19T19:22:23.336Z,0.30
2022-08-19T19:24:55.796Z,0.30
2022-08-19T19:27:26.231Z,0.80
2022-08-19T19:29:59.915Z,0.63
2022-08-19T19:32:38.999Z,0.30
2022-08-19T19:35:12.569Z,0.20
2022-08-19T19:37:44.817Z,0.20
2022-08-19T19:40:15.368Z,0.55
2022-08-19T19:42:47.517Z,0.50
2022-08-19T19:45:20.019Z,0.30
2022-08-19T19:47:51.403Z,0.68
2022-08-19T19:50:22.030Z,0.40
2022-08-19T19:52:52.525Z,0.20
2022-08-19T19:57:55.360Z,0.20
2022-08-19T20:00:26.754Z,0.93
2022-08-19T20:02:57.318Z,0.13
2022-08-19T20:05:28.272Z,0.20
2022-08-19T20:08:16.891Z,0.20
2022-08-19T20:10:49.538Z,0.30
2022-08-19T20:15:49.618Z,0.08
2022-08-19T20:20:51.503Z,0.50
2022-08-19T20:23:24.057Z,0.50
2022-08-19T20:25:55.774Z,0.50
2022-08-19T20:28:26.313Z,0.57
2022-08-19T20:33:26.686Z,0.60
2022-08-19T20:38:26.922Z,0.10
2022-08-19T20:40:57.315Z,0.40
2022-08-19T20:43:27.742Z,0.30
2022-08-19T20:45:58.253Z,0.20
2022-08-19T20:50:59.273Z,0.25
2022-08-19T20:53:29.672Z,0.40
2022-08-19T20:56:00.812Z,0.15
2022-08-19T20:58:31.350Z,0.40
2022-08-19T21:03:42.469Z,0.28
2022-08-19T21:06:16.602Z,0.30
2022-08-19T21:08:49.917Z,0.45
2022-08-19T21:11:24.165Z,0.17
2022-08-19T21:13:54.896Z,0.30
2022-08-19T21:16:26.542Z,0.30
2022-08-19T21:18:57.031Z,0.88
2022-08-19T21:23:57.887Z,0.30
2022-08-19T21:26:28.788Z,0.57
2022-08-19T21:28:59.549Z,0.47
2022-08-19T21:31:30.310Z,0.57
2022-08-19T21:34:02.262Z,0.50
2022-08-19T21:36:33.247Z,0.70
2022-08-19T21:39:04.024Z,0.80
2022-08-19T21:41:34.897Z,0.80
2022-08-19T21:44:05.614Z,1.23
2022-08-19T21:46:36.577Z,1.27
2022-08-19T21:49:07.273Z,2.85
2022-08-19T21:51:38.000Z,3.60
2022-08-19T21:56:45.297Z,5.55
2022-08-19T21:59:16.025Z,5.07
2022-08-19T22:01:52.011Z,5.32
2022-08-19T22:04:28.451Z,5.55
2022-08-19T22:06:59.208Z,5.93
2022-08-19T22:09:29.948Z,6.22
2022-08-19T22:12:00.751Z,6.15
2022-08-19T22:14:31.384Z,6.40
2022-08-19T22:19:33.259Z,4.78
2022-08-19T22:22:03.735Z,5.28
2022-08-19T22:24:34.214Z,6.75
2022-08-19T22:27:08.510Z,7.93
2022-08-19T22:29:39.169Z,7.85
2022-08-19T22:34:59.921Z,9.00
2022-08-19T22:37:33.858Z,8.52
2022-08-19T22:40:05.808Z,7.55
2022-08-19T22:42:36.340Z,8.48
2022-08-19T22:45:11.467Z,9.05
2022-08-19T22:47:42.107Z,8.57
2022-08-19T22:52:51.836Z,7.95
2022-08-19T22:55:22.660Z,8.93
2022-08-19T22:57:55.427Z,8.52
2022-08-19T23:00:29.146Z,10.25
2022-08-19T23:02:59.962Z,10.75
2022-08-19T23:05:31.116Z,10.40
2022-08-19T23:08:01.795Z,8.70
2022-08-19T23:13:02.108Z,7.43
2022-08-19T23:18:05.977Z,6.43
2022-08-19T23:20:39.853Z,6.63
2022-08-19T23:23:14.292Z,5.18
2022-08-19T23:25:44.728Z,5.18
2022-08-19T23:28:33.946Z,5.85
2022-08-19T23:31:06.172Z,5.75
2022-08-19T23:33:50.913Z,6.20
2022-08-19T23:36:22.849Z,6.50
2022-08-19T23:38:56.095Z,5.95
2022-08-19T23:41:28.455Z,6.22
2022-08-19T23:43:58.994Z,7.03
2022-08-19T23:46:30.940Z,6.38
2022-08-19T23:49:21.056Z,6.22
2022-08-19T23:51:51.370Z,6.32
2022-08-19T23:54:21.900Z,5.88
2022-08-19T23:59:23.049Z,5.43
